Flight Track Log - Related Links

Times and Time Zones

All times are in EDT time to prevent confusion due to time zone crossing. See the UAL4528 flight status page for this flight to view local times or setup timezone preferences in your user account.

Time Position Orientation Groundspeed Altitude Reporting Facility
EDT Latitude Longitude Course Direction KTS MPH feet Rate Location/Type
Thu 08:09:00 PM 30.0542 -96.0126 291° West  Level FlightAware Approximate
Thu 08:10:00 PM 30.0755 -96.1467 276° West  Level FlightAware Approximate
Thu 08:11:00 PM 30.1000 -96.2748 270° West  Level FlightAware Approximate
Thu 08:12:00 PM 30.1159 -96.4106 279° West  Level FlightAware Approximate
Thu 08:13:00 PM 30.1353 -96.5462 280° West  Level FlightAware Approximate
Thu 08:14:00 PM 30.1562 -96.6814 280° West  Level FlightAware Approximate
Thu 08:15:00 PM 30.1799 -96.8160 283° West  Level FlightAware Approximate
Thu 08:16:00 PM 30.2000 -96.9509 270° West  Level FlightAware Approximate
Thu 08:17:00 PM 30.2194 -97.0845 280° West  Level FlightAware Approximate
Thu 08:18:00 PM 30.2403 -97.2199 280° West  Level FlightAware Approximate
Thu 08:19:00 PM 30.2620 -97.3551 281° West  Level FlightAware Approximate
Thu 08:20:00 PM 30.2765 -97.4916 276° West  Level FlightAware Approximate
Thu 08:21:00 PM 30.2935 -97.6276 281° West  Level FlightAware Approximate
Thu 08:22:00 PM 30.3139 -97.7632 279° West  Level FlightAware Approximate
Thu 08:23:00 PM 30.3333 -97.8990 279° West  Level FlightAware Approximate
Thu 08:24:00 PM 30.3529 -98.0348 280° West  Level FlightAware Approximate
Thu 08:25:00 PM 30.3744 -98.1703 280° West  Level FlightAware Approximate
Thu 08:26:00 PM 30.3957 -98.3058 280° West  Level FlightAware Approximate
Thu 08:27:00 PM 30.4146 -98.4418 279° West  Level FlightAware Approximate
Thu 08:28:00 PM 30.4328 -98.5780 279° West  Level FlightAware Approximate
Thu 08:29:00 PM 30.4509 -98.7142 279° West  Level FlightAware Approximate
Thu 08:30:00 PM 30.4688 -98.8504 279° West  Level FlightAware Approximate
Thu 08:31:00 PM 30.4866 -98.9868 279° West  Level FlightAware Approximate
Thu 08:32:00 PM 30.5043 -99.1231 279° West  Level FlightAware Approximate
Thu 08:33:00 PM 30.5218 -99.2596 279° West  Level FlightAware Approximate
Thu 08:34:00 PM 30.5383 -99.3962 277° West  Level FlightAware Approximate
Thu 08:35:00 PM 30.5532 -99.5331 277° West  Level FlightAware Approximate
Thu 08:36:00 PM 30.5678 -99.6700 277° West  Level FlightAware Approximate
Thu 08:37:00 PM 30.5823 -99.8070 277° West  Level FlightAware Approximate
Thu 08:38:00 PM 30.6753 -99.8877 326° Northwest  Level FlightAware Approximate
Thu 08:39:00 PM 30.7742 -99.9643 326° Northwest  Level FlightAware Approximate
Thu 08:40:00 PM 30.8730 -100.0411 326° Northwest  Level FlightAware Approximate
Thu 08:41:00 PM 30.9718 -100.1180 326° Northwest  Level FlightAware Approximate
Thu 08:42:00 PM 31.0706 -100.1951 326° Northwest  Level FlightAware Approximate
Thu 08:43:00 PM 31.1693 -100.2724 326° Northwest  Level FlightAware Approximate
Thu 08:44:00 PM 31.2639 -100.3565 322° Northwest  Level FlightAware Approximate
Thu 08:45:00 PM 31.3577 -100.4418 322° Northwest  Level FlightAware Approximate
Thu 08:46:00 PM 31.4621 -100.5079 333° Northwest  Level FlightAware Approximate
Thu 08:47:00 PM 31.5675 -100.5722 333° Northwest  Level FlightAware Approximate
Thu 08:48:00 PM 31.6730 -100.6365 333° Northwest  Level FlightAware Approximate
Thu 08:49:00 PM 31.7784 -100.7010 333° Northwest  Level FlightAware Approximate
Thu 08:50:00 PM 31.8837 -100.7657 332° Northwest  Level FlightAware Approximate
Thu 08:51:00 PM 31.9895 -100.8294 335° Northwest  Level FlightAware Approximate
Thu 08:52:00 PM 32.0970 -100.8891 335° Northwest  Level FlightAware Approximate
Thu 08:53:00 PM 32.1993 -100.9602 332° Northwest  Level FlightAware Approximate
Thu 08:54:00 PM 32.3040 -101.0267 332° Northwest  Level FlightAware Approximate
Thu 08:55:00 PM 32.4082 -101.0943 331° Northwest  Level FlightAware Approximate
Thu 08:56:00 PM 32.5117 -101.1634 331° Northwest  Level FlightAware Approximate
Thu 08:57:00 PM 32.6186 -101.2249 334° Northwest  Level FlightAware Approximate
Thu 08:58:00 PM 32.7257 -101.2861 334° Northwest  Level FlightAware Approximate
Thu 08:59:00 PM 32.8313 -101.3508 332° Northwest  Level FlightAware Approximate
Thu 09:00:00 PM 32.9363 -101.4170 332° Northwest  Level FlightAware Approximate
Thu 09:01:00 PM 33.0411 -101.4837 332° Northwest  Level FlightAware Approximate
Thu 09:02:00 PM 33.1438 -101.5551 329° Northwest  Level FlightAware Approximate
Thu 09:03:00 PM 33.2493 -101.6200 335° Northwest  Level FlightAware Approximate
Thu 09:04:00 PM 33.3557 -101.6829 329° Northwest  Level FlightAware Approximate
Thu 09:05:00 PM 33.4573 -101.7568 329° Northwest  Level FlightAware Approximate
Thu 09:06:00 PM 33.5615 -101.8249 335° Northwest  Level FlightAware Approximate
Thu 09:07:00 PM 33.6637 -101.8206 337° Northwest  Level Estimated
Thu 09:08:00 PM 33.6637 -101.8206 121° Southeast  Level Estimated
Thu 09:09:00 PM 33.6637 -101.8206 121° Southeast  Level Estimated
Thu 09:10:00 PM 33.6637 -101.8206 121° Southeast  Level Estimated
Thu 09:11:00 PM 33.6637 -101.8206 121° Southeast  Level Estimated
Thu 09:12:00 PM 33.6637 -101.8206 121° Southeast  Level Estimated
Thu 09:13:00 PM 33.6637 -101.8206 121° Southeast  Level Estimated
Thu 09:14:00 PM 33.6637 -101.8206 121° Southeast  Level Estimated

Login

Don't have an account? Register now (free) for customized features, flight alerts, and more!